sensor_id;sensor_type;location;lat;lon;timestamp;temperature;humidity
6696;DHT22;3385;48.928;10.330;2023-07-13T00:01:55;20.00;99.90
6696;DHT22;3385;48.928;10.330;2023-07-13T00:04:22;20.10;99.90
6696;DHT22;3385;48.928;10.330;2023-07-13T00:06:49;20.00;99.90
6696;DHT22;3385;48.928;10.330;2023-07-13T00:09:17;19.70;99.90
6696;DHT22;3385;48.928;10.330;2023-07-13T00:11:43;19.80;99.90
6696;DHT22;3385;48.928;10.330;2023-07-13T00:14:10;19.40;99.90
6696;DHT22;3385;48.928;10.330;2023-07-13T00:16:38;19.80;99.90
6696;DHT22;3385;48.928;10.330;2023-07-13T00:19:04;19.70;99.90
6696;DHT22;3385;48.928;10.330;2023-07-13T00:21:31;19.10;99.90
6696;DHT22;3385;48.928;10.330;2023-07-13T00:23:56;19.40;99.90
6696;DHT22;3385;48.928;10.330;2023-07-13T00:26:23;19.40;99.90
6696;DHT22;3385;48.928;10.330;2023-07-13T00:28:48;19.20;99.90
6696;DHT22;3385;48.928;10.330;2023-07-13T00:31:14;19.10;99.90
6696;DHT22;3385;48.928;10.330;2023-07-13T00:33:41;19.20;99.90
6696;DHT22;3385;48.928;10.330;2023-07-13T00:36:08;19.10;99.90
6696;DHT22;3385;48.928;10.330;2023-07-13T00:38:34;19.10;99.90
6696;DHT22;3385;48.928;10.330;2023-07-13T00:41:00;18.90;99.90
6696;DHT22;3385;48.928;10.330;2023-07-13T00:43:28;19.00;99.90
6696;DHT22;3385;48.928;10.330;2023-07-13T00:48:25;18.90;99.90
6696;DHT22;3385;48.928;10.330;2023-07-13T00:50:56;18.90;99.90
6696;DHT22;3385;48.928;10.330;2023-07-13T00:53:26;18.80;99.90
6696;DHT22;3385;48.928;10.330;2023-07-13T00:55:53;18.80;99.90
6696;DHT22;3385;48.928;10.330;2023-07-13T00:58:20;18.80;99.90
6696;DHT22;3385;48.928;10.330;2023-07-13T01:00:47;18.70;99.90
6696;DHT22;3385;48.928;10.330;2023-07-13T01:03:15;18.80;99.90
6696;DHT22;3385;48.928;10.330;2023-07-13T01:05:41;18.90;99.90
6696;DHT22;3385;48.928;10.330;2023-07-13T01:08:07;18.80;99.90
6696;DHT22;3385;48.928;10.330;2023-07-13T01:10:33;18.80;99.90
6696;DHT22;3385;48.928;10.330;2023-07-13T01:13:08;18.40;99.90
6696;DHT22;3385;48.928;10.330;2023-07-13T01:15:52;18.50;99.90
6696;DHT22;3385;48.928;10.330;2023-07-13T01:18:24;18.70;99.90
6696;DHT22;3385;48.928;10.330;2023-07-13T01:21:03;18.40;99.90
6696;DHT22;3385;48.928;10.330;2023-07-13T01:23:30;18.50;99.90
6696;DHT22;3385;48.928;10.330;2023-07-13T01:25:57;18.20;99.90
6696;DHT22;3385;48.928;10.330;2023-07-13T01:28:23;18.40;99.90
6696;DHT22;3385;48.928;10.330;2023-07-13T01:30:54;18.20;99.90
6696;DHT22;3385;48.928;10.330;2023-07-13T01:33:19;18.20;99.90
6696;DHT22;3385;48.928;10.330;2023-07-13T01:35:46;18.00;99.90
6696;DHT22;3385;48.928;10.330;2023-07-13T01:38:17;18.10;99.90
6696;DHT22;3385;48.928;10.330;2023-07-13T01:40:43;18.10;99.90
6696;DHT22;3385;48.928;10.330;2023-07-13T01:43:09;18.30;99.90
6696;DHT22;3385;48.928;10.330;2023-07-13T01:45:35;18.00;99.90
6696;DHT22;3385;48.928;10.330;2023-07-13T01:48:00;17.90;99.90
6696;DHT22;3385;48.928;10.330;2023-07-13T01:50:26;17.90;99.90
6696;DHT22;3385;48.928;10.330;2023-07-13T01:52:52;17.70;99.90
6696;DHT22;3385;48.928;10.330;2023-07-13T01:55:19;17.90;99.90
6696;DHT22;3385;48.928;10.330;2023-07-13T01:57:45;18.00;99.90
6696;DHT22;3385;48.928;10.330;2023-07-13T02:00:12;17.90;99.90
6696;DHT22;3385;48.928;10.330;2023-07-13T02:02:38;17.70;99.90
6696;DHT22;3385;48.928;10.330;2023-07-13T02:05:04;17.70;99.90
6696;DHT22;3385;48.928;10.330;2023-07-13T02:07:30;16.60;99.90
6696;DHT22;3385;48.928;10.330;2023-07-13T02:09:56;17.80;99.90
6696;DHT22;3385;48.928;10.330;2023-07-13T02:12:22;17.40;99.90
6696;DHT22;3385;48.928;10.330;2023-07-13T02:14:47;17.60;99.90
6696;DHT22;3385;48.928;10.330;2023-07-13T02:17:13;17.20;99.90
6696;DHT22;3385;48.928;10.330;2023-07-13T02:19:39;17.60;99.90
6696;DHT22;3385;48.928;10.330;2023-07-13T02:22:06;17.20;99.90
6696;DHT22;3385;48.928;10.330;2023-07-13T02:24:32;17.50;99.90
6696;DHT22;3385;48.928;10.330;2023-07-13T02:26:57;17.50;99.90
6696;DHT22;3385;48.928;10.330;2023-07-13T02:29:23;17.20;99.90
6696;DHT22;3385;48.928;10.330;2023-07-13T02:31:49;17.20;99.90
6696;DHT22;3385;48.928;10.330;2023-07-13T02:34:15;17.30;99.90
6696;DHT22;3385;48.928;10.330;2023-07-13T02:36:40;17.40;99.90
6696;DHT22;3385;48.928;10.330;2023-07-13T02:39:07;17.00;99.90
6696;DHT22;3385;48.928;10.330;2023-07-13T02:41:33;17.00;99.90
6696;DHT22;3385;48.928;10.330;2023-07-13T02:43:59;17.00;99.90
6696;DHT22;3385;48.928;10.330;2023-07-13T02:46:38;17.10;99.90
6696;DHT22;3385;48.928;10.330;2023-07-13T02:49:04;17.10;99.90
6696;DHT22;3385;48.928;10.330;2023-07-13T02:51:29;17.10;99.90
6696;DHT22;3385;48.928;10.330;2023-07-13T02:53:55;17.10;99.90
6696;DHT22;3385;48.928;10.330;2023-07-13T02:56:24;16.90;99.90
6696;DHT22;3385;48.928;10.330;2023-07-13T02:58:50;16.70;99.90
6696;DHT22;3385;48.928;10.330;2023-07-13T03:01:16;16.80;99.90
6696;DHT22;3385;48.928;10.330;2023-07-13T03:03:46;16.80;99.90
6696;DHT22;3385;48.928;10.330;2023-07-13T03:06:13;16.80;99.90
6696;DHT22;3385;48.928;10.330;2023-07-13T03:08:39;16.80;99.90
6696;DHT22;3385;48.928;10.330;2023-07-13T03:11:08;17.00;99.90
6696;DHT22;3385;48.928;10.330;2023-07-13T03:13:34;16.90;99.90
6696;DHT22;3385;48.928;10.330;2023-07-13T03:16:00;16.60;99.90
6696;DHT22;3385;48.928;10.330;2023-07-13T03:18:27;16.60;99.90
6696;DHT22;3385;48.928;10.330;2023-07-13T03:20:53;16.70;99.90
6696;DHT22;3385;48.928;10.330;2023-07-13T03:23:20;16.60;99.90
6696;DHT22;3385;48.928;10.330;2023-07-13T03:25:46;16.80;99.90
6696;DHT22;3385;48.928;10.330;2023-07-13T03:28:12;16.60;99.90
6696;DHT22;3385;48.928;10.330;2023-07-13T03:30:38;16.40;99.90
6696;DHT22;3385;48.928;10.330;2023-07-13T03:33:04;16.70;99.90
6696;DHT22;3385;48.928;10.330;2023-07-13T03:35:30;16.60;99.90
6696;DHT22;3385;48.928;10.330;2023-07-13T03:37:58;16.50;99.90
6696;DHT22;3385;48.928;10.330;2023-07-13T03:40:25;16.30;99.90
6696;DHT22;3385;48.928;10.330;2023-07-13T03:42:51;16.60;99.90
6696;DHT22;3385;48.928;10.330;2023-07-13T03:45:17;16.70;99.90
6696;DHT22;3385;48.928;10.330;2023-07-13T03:47:43;16.60;99.90
6696;DHT22;3385;48.928;10.330;2023-07-13T03:50:09;16.40;99.90
6696;DHT22;3385;48.928;10.330;2023-07-13T03:52:35;16.60;99.90
6696;DHT22;3385;48.928;10.330;2023-07-13T03:55:00;16.30;99.90
6696;DHT22;3385;48.928;10.330;2023-07-13T03:57:26;16.50;99.90
6696;DHT22;3385;48.928;10.330;2023-07-13T03:59:52;16.60;99.90
6696;DHT22;3385;48.928;10.330;2023-07-13T04:02:18;16.60;99.90
6696;DHT22;3385;48.928;10.330;2023-07-13T04:04:43;16.50;99.90
6696;DHT22;3385;48.928;10.330;2023-07-13T04:07:09;16.50;99.90
6696;DHT22;3385;48.928;10.330;2023-07-13T04:09:35;16.50;99.90
6696;DHT22;3385;48.928;10.330;2023-07-13T04:12:01;16.50;99.90
6696;DHT22;3385;48.928;10.330;2023-07-13T04:14:27;16.50;99.90
6696;DHT22;3385;48.928;10.330;2023-07-13T04:16:53;16.50;99.90
6696;DHT22;3385;48.928;10.330;2023-07-13T04:19:20;16.30;99.90
6696;DHT22;3385;48.928;10.330;2023-07-13T04:21:46;16.40;99.90
6696;DHT22;3385;48.928;10.330;2023-07-13T04:24:12;16.70;99.90
6696;DHT22;3385;48.928;10.330;2023-07-13T04:26:38;16.30;99.90
6696;DHT22;3385;48.928;10.330;2023-07-13T04:29:05;16.60;99.90
6696;DHT22;3385;48.928;10.330;2023-07-13T04:31:32;16.70;99.90
6696;DHT22;3385;48.928;10.330;2023-07-13T04:33:57;16.60;99.90
6696;DHT22;3385;48.928;10.330;2023-07-13T04:36:24;16.90;99.90
6696;DHT22;3385;48.928;10.330;2023-07-13T04:38:52;17.00;99.90
6696;DHT22;3385;48.928;10.330;2023-07-13T04:41:20;17.00;99.90
6696;DHT22;3385;48.928;10.330;2023-07-13T04:43:46;16.90;99.90
6696;DHT22;3385;48.928;10.330;2023-07-13T04:46:15;17.40;99.90
6696;DHT22;3385;48.928;10.330;2023-07-13T04:48:42;17.10;99.90
6696;DHT22;3385;48.928;10.330;2023-07-13T04:51:08;17.30;99.90
6696;DHT22;3385;48.928;10.330;2023-07-13T04:53:34;17.30;99.90
6696;DHT22;3385;48.928;10.330;2023-07-13T04:56:01;17.60;99.90
6696;DHT22;3385;48.928;10.330;2023-07-13T04:58:27;17.60;99.90
6696;DHT22;3385;48.928;10.330;2023-07-13T05:00:53;17.50;99.90
6696;DHT22;3385;48.928;10.330;2023-07-13T05:03:24;17.60;99.90
6696;DHT22;3385;48.928;10.330;2023-07-13T05:06:02;17.80;99.90
6696;DHT22;3385;48.928;10.330;2023-07-13T05:08:28;17.50;99.90
6696;DHT22;3385;48.928;10.330;2023-07-13T05:10:54;18.00;99.90
6696;DHT22;3385;48.928;10.330;2023-07-13T05:13:20;17.70;99.90
6696;DHT22;3385;48.928;10.330;2023-07-13T05:15:55;17.90;99.90
6696;DHT22;3385;48.928;10.330;2023-07-13T05:18:20;17.80;99.90
6696;DHT22;3385;48.928;10.330;2023-07-13T05:20:46;18.20;99.90
6696;DHT22;3385;48.928;10.330;2023-07-13T05:23:12;17.90;99.90
6696;DHT22;3385;48.928;10.330;2023-07-13T05:25:37;18.00;99.90
6696;DHT22;3385;48.928;10.330;2023-07-13T05:28:03;18.30;99.90
6696;DHT22;3385;48.928;10.330;2023-07-13T05:30:29;18.00;99.90
6696;DHT22;3385;48.928;10.330;2023-07-13T05:32:54;18.30;99.90
6696;DHT22;3385;48.928;10.330;2023-07-13T05:35:20;17.90;99.90
6696;DHT22;3385;48.928;10.330;2023-07-13T05:37:46;18.20;99.90
6696;DHT22;3385;48.928;10.330;2023-07-13T05:40:11;18.40;99.90
6696;DHT22;3385;48.928;10.330;2023-07-13T05:42:37;18.20;99.90
6696;DHT22;3385;48.928;10.330;2023-07-13T05:45:03;18.20;99.90
6696;DHT22;3385;48.928;10.330;2023-07-13T05:47:29;18.20;99.90
6696;DHT22;3385;48.928;10.330;2023-07-13T05:49:55;18.40;99.90
6696;DHT22;3385;48.928;10.330;2023-07-13T05:52:20;18.30;99.90
6696;DHT22;3385;48.928;10.330;2023-07-13T05:54:46;18.60;99.90
6696;DHT22;3385;48.928;10.330;2023-07-13T05:57:12;19.00;99.90
6696;DHT22;3385;48.928;10.330;2023-07-13T05:59:37;18.60;99.90
6696;DHT22;3385;48.928;10.330;2023-07-13T06:02:03;18.30;99.90
6696;DHT22;3385;48.928;10.330;2023-07-13T06:04:29;18.50;99.90
6696;DHT22;3385;48.928;10.330;2023-07-13T06:06:55;18.60;99.90
6696;DHT22;3385;48.928;10.330;2023-07-13T06:09:20;18.70;99.90
6696;DHT22;3385;48.928;10.330;2023-07-13T06:11:46;18.70;99.90
6696;DHT22;3385;48.928;10.330;2023-07-13T06:14:12;18.80;99.90
6696;DHT22;3385;48.928;10.330;2023-07-13T06:16:39;18.80;99.90
6696;DHT22;3385;48.928;10.330;2023-07-13T06:19:05;19.00;99.90
6696;DHT22;3385;48.928;10.330;2023-07-13T06:21:31;19.10;99.90
6696;DHT22;3385;48.928;10.330;2023-07-13T06:23:57;19.20;99.90
6696;DHT22;3385;48.928;10.330;2023-07-13T06:26:25;19.00;99.90
6696;DHT22;3385;48.928;10.330;2023-07-13T06:28:52;19.20;99.90
6696;DHT22;3385;48.928;10.330;2023-07-13T06:31:18;19.20;99.90
6696;DHT22;3385;48.928;10.330;2023-07-13T06:33:44;19.10;99.90
6696;DHT22;3385;48.928;10.330;2023-07-13T06:36:10;19.40;99.90
6696;DHT22;3385;48.928;10.330;2023-07-13T06:38:36;19.20;99.90
6696;DHT22;3385;48.928;10.330;2023-07-13T06:41:02;19.20;99.90
6696;DHT22;3385;48.928;10.330;2023-07-13T06:43:28;19.60;99.90
6696;DHT22;3385;48.928;10.330;2023-07-13T06:45:55;19.60;99.90
6696;DHT22;3385;48.928;10.330;2023-07-13T06:48:21;19.60;99.90
6696;DHT22;3385;48.928;10.330;2023-07-13T06:50:48;19.60;99.90
6696;DHT22;3385;48.928;10.330;2023-07-13T06:53:15;19.60;99.90
6696;DHT22;3385;48.928;10.330;2023-07-13T06:55:43;19.40;99.90
6696;DHT22;3385;48.928;10.330;2023-07-13T06:58:09;19.50;99.90
6696;DHT22;3385;48.928;10.330;2023-07-13T07:00:34;19.40;99.90
6696;DHT22;3385;48.928;10.330;2023-07-13T07:03:00;19.10;99.90
6696;DHT22;3385;48.928;10.330;2023-07-13T07:05:26;19.40;99.90
6696;DHT22;3385;48.928;10.330;2023-07-13T07:07:54;19.10;99.90
6696;DHT22;3385;48.928;10.330;2023-07-13T07:10:20;19.10;99.90
6696;DHT22;3385;48.928;10.330;2023-07-13T07:12:46;19.50;99.90
6696;DHT22;3385;48.928;10.330;2023-07-13T07:15:12;19.50;99.90
6696;DHT22;3385;48.928;10.330;2023-07-13T07:17:39;19.40;99.90
6696;DHT22;3385;48.928;10.330;2023-07-13T07:20:05;19.30;99.90
6696;DHT22;3385;48.928;10.330;2023-07-13T07:22:31;19.60;99.90
6696;DHT22;3385;48.928;10.330;2023-07-13T07:24:57;19.80;99.90
6696;DHT22;3385;48.928;10.330;2023-07-13T07:27:24;20.10;99.90
6696;DHT22;3385;48.928;10.330;2023-07-13T07:29:50;20.10;99.90
6696;DHT22;3385;48.928;10.330;2023-07-13T07:32:16;20.60;99.90
6696;DHT22;3385;48.928;10.330;2023-07-13T07:34:41;20.80;99.90
6696;DHT22;3385;48.928;10.330;2023-07-13T07:37:10;21.10;99.90
6696;DHT22;3385;48.928;10.330;2023-07-13T07:39:36;20.90;99.90
6696;DHT22;3385;48.928;10.330;2023-07-13T07:42:03;21.00;99.90
6696;DHT22;3385;48.928;10.330;2023-07-13T07:44:28;20.80;99.90
6696;DHT22;3385;48.928;10.330;2023-07-13T07:46:56;20.80;99.90
6696;DHT22;3385;48.928;10.330;2023-07-13T07:49:21;20.80;99.90
6696;DHT22;3385;48.928;10.330;2023-07-13T07:51:47;20.90;99.90
6696;DHT22;3385;48.928;10.330;2023-07-13T07:54:13;20.70;99.90
6696;DHT22;3385;48.928;10.330;2023-07-13T07:56:40;20.90;99.90
6696;DHT22;3385;48.928;10.330;2023-07-13T07:59:05;20.80;99.90
6696;DHT22;3385;48.928;10.330;2023-07-13T08:01:31;20.90;99.90
6696;DHT22;3385;48.928;10.330;2023-07-13T08:03:57;20.90;99.90
6696;DHT22;3385;48.928;10.330;2023-07-13T08:06:23;21.00;99.90
6696;DHT22;3385;48.928;10.330;2023-07-13T08:08:49;21.00;99.90
6696;DHT22;3385;48.928;10.330;2023-07-13T08:11:16;21.00;99.90
6696;DHT22;3385;48.928;10.330;2023-07-13T08:13:42;21.20;99.90
6696;DHT22;3385;48.928;10.330;2023-07-13T08:16:07;21.70;99.90
6696;DHT22;3385;48.928;10.330;2023-07-13T08:18:33;21.30;99.90
6696;DHT22;3385;48.928;10.330;2023-07-13T08:21:06;21.40;99.90
6696;DHT22;3385;48.928;10.330;2023-07-13T08:23:33;21.30;99.90
6696;DHT22;3385;48.928;10.330;2023-07-13T08:25:59;21.30;99.90
6696;DHT22;3385;48.928;10.330;2023-07-13T08:28:27;21.70;99.90
6696;DHT22;3385;48.928;10.330;2023-07-13T08:30:53;21.50;99.90
6696;DHT22;3385;48.928;10.330;2023-07-13T08:33:20;21.50;99.90
6696;DHT22;3385;48.928;10.330;2023-07-13T08:35:47;21.70;99.90
6696;DHT22;3385;48.928;10.330;2023-07-13T08:38:13;21.70;99.90
6696;DHT22;3385;48.928;10.330;2023-07-13T08:40:39;21.40;99.90
6696;DHT22;3385;48.928;10.330;2023-07-13T08:43:12;21.70;99.90
6696;DHT22;3385;48.928;10.330;2023-07-13T08:45:47;21.80;99.90
6696;DHT22;3385;48.928;10.330;2023-07-13T08:48:35;21.70;99.90
6696;DHT22;3385;48.928;10.330;2023-07-13T08:53:46;21.70;99.90
6696;DHT22;3385;48.928;10.330;2023-07-13T08:56:21;21.80;99.90
6696;DHT22;3385;48.928;10.330;2023-07-13T08:58:51;21.40;99.90
6696;DHT22;3385;48.928;10.330;2023-07-13T09:04:20;21.80;99.90
6696;DHT22;3385;48.928;10.330;2023-07-13T09:14:57;22.40;99.90
6696;DHT22;3385;48.928;10.330;2023-07-13T09:17:27;22.40;99.90
6696;DHT22;3385;48.928;10.330;2023-07-13T09:20:01;22.50;99.90
6696;DHT22;3385;48.928;10.330;2023-07-13T09:22:31;22.60;99.90
6696;DHT22;3385;48.928;10.330;2023-07-13T09:25:12;22.70;99.90
6696;DHT22;3385;48.928;10.330;2023-07-13T09:27:45;22.90;99.90
6696;DHT22;3385;48.928;10.330;2023-07-13T09:32:43;23.10;99.90
6696;DHT22;3385;48.928;10.330;2023-07-13T09:35:18;23.20;99.90
6696;DHT22;3385;48.928;10.330;2023-07-13T09:37:45;23.20;99.90
6696;DHT22;3385;48.928;10.330;2023-07-13T09:40:23;23.30;99.90
6696;DHT22;3385;48.928;10.330;2023-07-13T09:42:53;23.30;99.90
6696;DHT22;3385;48.928;10.330;2023-07-13T09:45:30;23.50;99.90
6696;DHT22;3385;48.928;10.330;2023-07-13T09:48:04;23.80;99.90
6696;DHT22;3385;48.928;10.330;2023-07-13T09:50:30;24.10;99.90
6696;DHT22;3385;48.928;10.330;2023-07-13T09:52:56;24.30;99.90
6696;DHT22;3385;48.928;10.330;2023-07-13T09:55:31;24.50;99.90
6696;DHT22;3385;48.928;10.330;2023-07-13T09:57:58;24.30;99.90
6696;DHT22;3385;48.928;10.330;2023-07-13T10:00:29;24.10;99.90
6696;DHT22;3385;48.928;10.330;2023-07-13T10:03:13;24.00;99.90
6696;DHT22;3385;48.928;10.330;2023-07-13T10:05:41;24.10;99.90
6696;DHT22;3385;48.928;10.330;2023-07-13T10:08:22;24.30;99.90
6696;DHT22;3385;48.928;10.330;2023-07-13T10:13:43;24.10;99.90
6696;DHT22;3385;48.928;10.330;2023-07-13T10:16:10;23.70;99.90
6696;DHT22;3385;48.928;10.330;2023-07-13T10:18:46;23.70;99.90
6696;DHT22;3385;48.928;10.330;2023-07-13T10:23:41;24.20;99.90
6696;DHT22;3385;48.928;10.330;2023-07-13T10:26:16;24.10;99.90
6696;DHT22;3385;48.928;10.330;2023-07-13T10:28:42;24.30;99.90
6696;DHT22;3385;48.928;10.330;2023-07-13T10:31:13;24.10;99.90
6696;DHT22;3385;48.928;10.330;2023-07-13T10:33:40;23.90;99.90
6696;DHT22;3385;48.928;10.330;2023-07-13T10:38:40;24.40;99.90
6696;DHT22;3385;48.928;10.330;2023-07-13T10:41:16;24.70;99.90
6696;DHT22;3385;48.928;10.330;2023-07-13T10:43:46;25.10;99.90
6696;DHT22;3385;48.928;10.330;2023-07-13T10:46:18;25.00;99.90
6696;DHT22;3385;48.928;10.330;2023-07-13T10:48:48;25.10;99.90
6696;DHT22;3385;48.928;10.330;2023-07-13T10:51:16;25.20;99.90
6696;DHT22;3385;48.928;10.330;2023-07-13T10:53:43;24.50;99.90
6696;DHT22;3385;48.928;10.330;2023-07-13T10:56:30;25.40;99.90
6696;DHT22;3385;48.928;10.330;2023-07-13T10:59:14;25.50;99.90
6696;DHT22;3385;48.928;10.330;2023-07-13T11:02:00;25.60;99.90
6696;DHT22;3385;48.928;10.330;2023-07-13T11:04:48;25.70;99.90
6696;DHT22;3385;48.928;10.330;2023-07-13T11:09:52;26.50;99.90
6696;DHT22;3385;48.928;10.330;2023-07-13T11:18:02;25.90;99.90
6696;DHT22;3385;48.928;10.330;2023-07-13T11:20:42;25.70;99.90
6696;DHT22;3385;48.928;10.330;2023-07-13T11:23:28;25.50;99.90
6696;DHT22;3385;48.928;10.330;2023-07-13T11:25:55;26.20;99.90
6696;DHT22;3385;48.928;10.330;2023-07-13T11:28:24;26.40;99.90
6696;DHT22;3385;48.928;10.330;2023-07-13T11:33:24;26.40;99.90
6696;DHT22;3385;48.928;10.330;2023-07-13T11:38:28;26.70;99.90
6696;DHT22;3385;48.928;10.330;2023-07-13T11:40:55;26.90;99.90
6696;DHT22;3385;48.928;10.330;2023-07-13T11:43:22;27.40;99.90
6696;DHT22;3385;48.928;10.330;2023-07-13T11:45:51;28.10;99.90
6696;DHT22;3385;48.928;10.330;2023-07-13T11:48:26;28.20;99.90
6696;DHT22;3385;48.928;10.330;2023-07-13T11:51:01;28.60;99.90
6696;DHT22;3385;48.928;10.330;2023-07-13T11:53:35;28.80;99.90
6696;DHT22;3385;48.928;10.330;2023-07-13T11:56:02;29.30;99.90
6696;DHT22;3385;48.928;10.330;2023-07-13T11:58:28;29.00;99.90
6696;DHT22;3385;48.928;10.330;2023-07-13T12:00:56;28.70;99.90
6696;DHT22;3385;48.928;10.330;2023-07-13T12:03:25;26.10;99.90
6696;DHT22;3385;48.928;10.330;2023-07-13T12:06:02;28.20;99.90
6696;DHT22;3385;48.928;10.330;2023-07-13T12:08:28;28.00;99.90
6696;DHT22;3385;48.928;10.330;2023-07-13T12:10:59;27.80;99.90
6696;DHT22;3385;48.928;10.330;2023-07-13T12:13:27;28.50;99.90
6696;DHT22;3385;48.928;10.330;2023-07-13T12:15:55;25.40;99.90
6696;DHT22;3385;48.928;10.330;2023-07-13T12:18:23;29.30;99.90
6696;DHT22;3385;48.928;10.330;2023-07-13T12:20:57;29.20;99.90
6696;DHT22;3385;48.928;10.330;2023-07-13T12:23:25;29.90;99.90
6696;DHT22;3385;48.928;10.330;2023-07-13T12:25:53;31.20;99.90
6696;DHT22;3385;48.928;10.330;2023-07-13T12:28:21;32.30;99.90
6696;DHT22;3385;48.928;10.330;2023-07-13T12:30:49;31.70;99.90
6696;DHT22;3385;48.928;10.330;2023-07-13T12:33:16;30.80;99.90
6696;DHT22;3385;48.928;10.330;2023-07-13T12:35:47;31.10;99.90
6696;DHT22;3385;48.928;10.330;2023-07-13T12:38:13;32.00;99.90
6696;DHT22;3385;48.928;10.330;2023-07-13T12:40:40;33.00;99.90
6696;DHT22;3385;48.928;10.330;2023-07-13T12:43:13;33.20;99.90
6696;DHT22;3385;48.928;10.330;2023-07-13T12:45:55;33.10;99.90
6696;DHT22;3385;48.928;10.330;2023-07-13T12:48:21;33.20;99.90
6696;DHT22;3385;48.928;10.330;2023-07-13T12:50:48;33.40;99.90
6696;DHT22;3385;48.928;10.330;2023-07-13T12:53:38;34.00;99.90
6696;DHT22;3385;48.928;10.330;2023-07-13T12:56:05;34.60;99.90
6696;DHT22;3385;48.928;10.330;2023-07-13T12:58:39;34.70;99.90
6696;DHT22;3385;48.928;10.330;2023-07-13T13:01:11;33.40;99.90
6696;DHT22;3385;48.928;10.330;2023-07-13T13:03:40;33.60;99.90
6696;DHT22;3385;48.928;10.330;2023-07-13T13:08:47;34.20;99.90
6696;DHT22;3385;48.928;10.330;2023-07-13T13:11:17;32.40;99.90
6696;DHT22;3385;48.928;10.330;2023-07-13T13:13:44;31.00;99.90
6696;DHT22;3385;48.928;10.330;2023-07-13T13:18:46;29.30;99.90
6696;DHT22;3385;48.928;10.330;2023-07-13T13:21:12;30.30;99.90
6696;DHT22;3385;48.928;10.330;2023-07-13T13:23:38;32.00;99.90
6696;DHT22;3385;48.928;10.330;2023-07-13T13:26:12;34.90;99.90
6696;DHT22;3385;48.928;10.330;2023-07-13T13:28:38;35.40;99.90
6696;DHT22;3385;48.928;10.330;2023-07-13T13:31:04;36.80;99.90
6696;DHT22;3385;48.928;10.330;2023-07-13T13:33:30;37.10;99.90
6696;DHT22;3385;48.928;10.330;2023-07-13T13:35:56;37.10;99.90
6696;DHT22;3385;48.928;10.330;2023-07-13T13:38:26;36.90;99.90
6696;DHT22;3385;48.928;10.330;2023-07-13T13:40:53;35.60;99.90
6696;DHT22;3385;48.928;10.330;2023-07-13T13:43:24;34.80;99.90
6696;DHT22;3385;48.928;10.330;2023-07-13T13:45:59;34.30;99.90
6696;DHT22;3385;48.928;10.330;2023-07-13T13:48:36;34.30;99.90
6696;DHT22;3385;48.928;10.330;2023-07-13T13:53:40;33.00;99.90
6696;DHT22;3385;48.928;10.330;2023-07-13T13:56:06;33.00;99.90
6696;DHT22;3385;48.928;10.330;2023-07-13T13:58:32;33.00;99.90
6696;DHT22;3385;48.928;10.330;2023-07-13T14:00:58;33.80;99.90
6696;DHT22;3385;48.928;10.330;2023-07-13T14:03:24;34.40;99.90
6696;DHT22;3385;48.928;10.330;2023-07-13T14:05:50;32.10;99.90
6696;DHT22;3385;48.928;10.330;2023-07-13T14:08:20;31.50;99.90
6696;DHT22;3385;48.928;10.330;2023-07-13T14:10:48;31.10;99.90
6696;DHT22;3385;48.928;10.330;2023-07-13T14:13:23;31.60;99.90
6696;DHT22;3385;48.928;10.330;2023-07-13T14:15:52;31.20;99.90
6696;DHT22;3385;48.928;10.330;2023-07-13T14:18:18;31.90;99.90
6696;DHT22;3385;48.928;10.330;2023-07-13T14:20:45;32.50;99.90
6696;DHT22;3385;48.928;10.330;2023-07-13T14:23:13;33.10;99.90
6696;DHT22;3385;48.928;10.330;2023-07-13T14:25:39;33.60;99.90
6696;DHT22;3385;48.928;10.330;2023-07-13T14:28:26;34.30;99.90
6696;DHT22;3385;48.928;10.330;2023-07-13T14:30:53;34.60;99.90
6696;DHT22;3385;48.928;10.330;2023-07-13T14:33:20;33.80;99.90
6696;DHT22;3385;48.928;10.330;2023-07-13T14:35:46;33.00;99.90
6696;DHT22;3385;48.928;10.330;2023-07-13T14:38:15;33.40;99.90
6696;DHT22;3385;48.928;10.330;2023-07-13T14:40:41;33.80;99.90
6696;DHT22;3385;48.928;10.330;2023-07-13T14:43:14;34.50;99.90
6696;DHT22;3385;48.928;10.330;2023-07-13T14:45:43;35.40;99.90
6696;DHT22;3385;48.928;10.330;2023-07-13T14:48:17;34.30;99.90
6696;DHT22;3385;48.928;10.330;2023-07-13T14:50:44;32.40;99.90
6696;DHT22;3385;48.928;10.330;2023-07-13T14:53:12;35.10;99.90
6696;DHT22;3385;48.928;10.330;2023-07-13T14:55:38;31.50;99.90
6696;DHT22;3385;48.928;10.330;2023-07-13T14:58:04;32.70;99.90
6696;DHT22;3385;48.928;10.330;2023-07-13T15:00:30;32.90;99.90
6696;DHT22;3385;48.928;10.330;2023-07-13T15:02:57;32.40;99.90
6696;DHT22;3385;48.928;10.330;2023-07-13T15:05:27;32.60;99.90
6696;DHT22;3385;48.928;10.330;2023-07-13T15:07:57;31.60;99.90
6696;DHT22;3385;48.928;10.330;2023-07-13T15:10:26;30.70;99.90
6696;DHT22;3385;48.928;10.330;2023-07-13T15:12:57;30.10;99.90
6696;DHT22;3385;48.928;10.330;2023-07-13T15:15:23;30.20;99.90
6696;DHT22;3385;48.928;10.330;2023-07-13T15:17:49;32.00;99.90
6696;DHT22;3385;48.928;10.330;2023-07-13T15:20:26;32.50;99.90
6696;DHT22;3385;48.928;10.330;2023-07-13T15:22:52;33.10;99.90
6696;DHT22;3385;48.928;10.330;2023-07-13T15:25:20;33.90;99.90
6696;DHT22;3385;48.928;10.330;2023-07-13T15:27:46;34.00;99.90
6696;DHT22;3385;48.928;10.330;2023-07-13T15:30:13;33.20;99.90
6696;DHT22;3385;48.928;10.330;2023-07-13T15:32:41;31.80;99.90
6696;DHT22;3385;48.928;10.330;2023-07-13T15:35:15;30.60;99.90
6696;DHT22;3385;48.928;10.330;2023-07-13T15:37:41;29.60;99.90
6696;DHT22;3385;48.928;10.330;2023-07-13T15:40:08;30.00;99.90
6696;DHT22;3385;48.928;10.330;2023-07-13T15:42:34;30.70;99.90
6696;DHT22;3385;48.928;10.330;2023-07-13T15:45:02;30.50;99.90
6696;DHT22;3385;48.928;10.330;2023-07-13T15:47:28;30.70;99.90
6696;DHT22;3385;48.928;10.330;2023-07-13T15:49:54;30.70;99.90
6696;DHT22;3385;48.928;10.330;2023-07-13T15:52:23;30.30;99.90
6696;DHT22;3385;48.928;10.330;2023-07-13T15:54:50;30.20;99.90
6696;DHT22;3385;48.928;10.330;2023-07-13T15:57:16;30.40;99.90
6696;DHT22;3385;48.928;10.330;2023-07-13T15:59:43;30.80;99.90
6696;DHT22;3385;48.928;10.330;2023-07-13T16:02:14;31.30;99.90
6696;DHT22;3385;48.928;10.330;2023-07-13T16:04:41;30.40;99.90
6696;DHT22;3385;48.928;10.330;2023-07-13T16:07:13;29.90;99.90
6696;DHT22;3385;48.928;10.330;2023-07-13T16:09:41;29.80;99.90
6696;DHT22;3385;48.928;10.330;2023-07-13T16:12:11;29.10;99.90
6696;DHT22;3385;48.928;10.330;2023-07-13T16:14:38;28.30;99.90
6696;DHT22;3385;48.928;10.330;2023-07-13T16:17:05;27.60;99.90
6696;DHT22;3385;48.928;10.330;2023-07-13T16:19:31;27.00;99.90
6696;DHT22;3385;48.928;10.330;2023-07-13T16:21:58;26.80;99.90
6696;DHT22;3385;48.928;10.330;2023-07-13T16:24:26;26.40;99.90
6696;DHT22;3385;48.928;10.330;2023-07-13T16:26:52;26.90;99.90
6696;DHT22;3385;48.928;10.330;2023-07-13T16:29:26;27.30;99.90
6696;DHT22;3385;48.928;10.330;2023-07-13T16:32:06;28.70;99.90
6696;DHT22;3385;48.928;10.330;2023-07-13T16:34:34;28.20;99.90
6696;DHT22;3385;48.928;10.330;2023-07-13T16:37:03;28.40;99.90
6696;DHT22;3385;48.928;10.330;2023-07-13T16:39:30;28.50;99.90